Time;durP1;ratioP1;P1;durP2;ratioP2;P2;SDS_P1;SDS_P2;PMS_P1;PMS_P2;Temp;Humidity;BMP_temperature;BMP_pressure;BME280_temperature;BME280_humidity;BME280_pressure;Samples;Min_cycle;Max_cycle;Signal;HPM_P1;HPM_P2
2022/11/01 00:00:19;;;;;;;33.53;17.67;;;12.90;99.90;;;;;;6340950;22;20331;-79
2022/11/01 00:02:45;;;;;;;35.20;18.10;;;12.90;99.90;;;;;;6340702;22;20026;-79
2022/11/01 00:05:11;;;;;;;33.63;17.40;;;12.90;99.90;;;;;;6340527;22;20443;-80
2022/11/01 00:07:36;;;;;;;30.73;16.73;;;12.90;99.90;;;;;;6340943;22;20025;-80
2022/11/01 00:10:03;;;;;;;31.60;16.33;;;12.90;99.90;;;;;;6340929;22;20015;-80
2022/11/01 00:12:31;;;;;;;31.73;16.13;;;12.90;99.90;;;;;;6340658;22;20014;-80
2022/11/01 00:14:57;;;;;;;30.23;15.38;;;13.00;99.90;;;;;;6340965;22;20010;-81
2022/11/01 00:17:23;;;;;;;28.63;15.93;;;13.00;99.90;;;;;;6340849;22;20091;-79
2022/11/01 00:19:48;;;;;;;28.02;15.15;;;13.00;99.90;;;;;;6340749;22;20395;-80
2022/11/01 00:22:14;;;;;;;27.92;15.68;;;13.00;99.90;;;;;;6340436;22;20015;-79
2022/11/01 00:24:40;;;;;;;27.17;15.55;;;13.00;99.90;;;;;;6340452;22;20437;-80
2022/11/01 00:27:05;;;;;;;26.15;15.35;;;13.00;99.90;;;;;;6340441;22;20033;-79
2022/11/01 00:29:31;;;;;;;28.23;14.63;;;13.00;99.90;;;;;;6312771;22;20014;-79
2022/11/01 00:31:56;;;;;;;31.92;15.52;;;12.90;99.90;;;;;;6340801;22;20375;-80
2022/11/01 00:34:22;;;;;;;27.52;15.07;;;13.00;99.90;;;;;;6340365;22;20018;-79
2022/11/01 00:36:48;;;;;;;37.83;14.98;;;13.00;99.90;;;;;;6312952;22;20019;-81
2022/11/01 00:39:17;;;;;;;29.30;15.52;;;13.00;99.90;;;;;;6340719;22;20022;-79
2022/11/01 00:49:29;;;;;;;28.35;14.15;;;13.00;99.90;;;;;;6350707;22;20461;-80
2022/11/01 00:51:54;;;;;;;29.17;13.88;;;13.00;99.90;;;;;;6372172;22;20021;-80
2022/11/01 00:54:20;;;;;;;29.38;14.18;;;13.00;99.90;;;;;;6372222;22;20342;-82
2022/11/01 00:56:45;;;;;;;27.23;13.63;;;12.90;99.90;;;;;;6372423;22;20042;-80
2022/11/01 00:59:11;;;;;;;30.33;14.93;;;13.00;99.90;;;;;;6372219;22;20094;-80
2022/11/01 01:01:37;;;;;;;24.85;14.18;;;13.00;99.90;;;;;;6343875;22;20010;-80
2022/11/01 01:04:02;;;;;;;26.00;14.05;;;13.00;99.90;;;;;;6372079;22;20010;-80
2022/11/01 01:06:28;;;;;;;26.80;14.43;;;12.90;99.90;;;;;;6372460;22;20018;-80
2022/11/01 01:08:58;;;;;;;25.25;13.00;;;13.00;99.90;;;;;;6372258;22;20014;-80
2022/11/01 01:11:23;;;;;;;28.00;14.73;;;13.00;99.90;;;;;;6371994;22;20046;-80
2022/11/01 01:13:49;;;;;;;26.88;13.25;;;13.00;99.90;;;;;;6372008;22;20010;-80
2022/11/01 01:16:14;;;;;;;23.55;12.82;;;13.00;99.90;;;;;;6343703;22;20018;-80
2022/11/01 01:18:40;;;;;;;26.27;13.18;;;13.00;99.90;;;;;;6371905;22;20029;-79
2022/11/01 01:21:06;;;;;;;24.42;13.45;;;13.00;99.90;;;;;;6371950;22;20022;-80
2022/11/01 01:23:32;;;;;;;21.25;12.82;;;13.00;99.90;;;;;;6371924;22;20099;-80
2022/11/01 01:25:57;;;;;;;27.42;13.00;;;13.10;99.90;;;;;;6371509;22;20018;-80
2022/11/01 01:28:23;;;;;;;25.75;13.48;;;13.00;99.90;;;;;;6371902;22;20018;-80
2022/11/01 01:30:48;;;;;;;22.48;12.32;;;13.00;99.90;;;;;;6343520;22;20100;-79
2022/11/01 01:33:14;;;;;;;22.95;12.85;;;13.00;99.90;;;;;;6371413;22;20464;-80
2022/11/01 01:35:43;;;;;;;22.60;12.70;;;13.10;99.90;;;;;;6371798;22;20018;-79
2022/11/01 01:38:08;;;;;;;23.30;13.05;;;13.10;99.90;;;;;;6343638;22;20046;-80
2022/11/01 01:40:34;;;;;;;24.13;12.20;;;13.10;99.90;;;;;;6370495;22;20026;-80
2022/11/01 01:43:00;;;;;;;26.42;11.90;;;13.10;99.90;;;;;;6371661;22;20010;-80
2022/11/01 01:45:30;;;;;;;25.27;12.10;;;13.10;99.90;;;;;;6342913;22;20346;-80
2022/11/01 01:48:09;;;;;;;24.63;12.52;;;13.10;99.90;;;;;;6371133;22;20561;-81
2022/11/01 01:51:06;;;;;;;21.08;12.20;;;13.10;99.90;;;;;;6344454;22;20517;-80
2022/11/01 01:53:35;;;;;;;31.70;12.85;;;13.10;99.90;;;;;;6346154;22;20090;-80
2022/11/01 01:56:09;;;;;;;21.17;10.32;;;13.20;99.90;;;;;;6370854;22;20014;-81
2022/11/01 01:58:53;;;;;;;27.50;12.55;;;13.20;99.90;;;;;;6371542;22;20085;-80
2022/11/01 02:01:19;;;;;;;27.73;11.65;;;13.20;99.90;;;;;;6371044;22;20014;-80
2022/11/01 02:03:46;;;;;;;21.00;11.65;;;13.20;99.90;;;;;;6371246;22;20092;-80
2022/11/01 02:06:15;;;;;;;22.05;11.77;;;13.20;99.90;;;;;;6343241;22;20022;-80
2022/11/01 02:08:54;;;;;;;25.33;10.85;;;13.30;99.90;;;;;;6371456;22;20015;-80
2022/11/01 02:11:23;;;;;;;20.35;10.75;;;13.20;99.90;;;;;;6371413;22;20085;-80
2022/11/01 02:13:49;;;;;;;20.83;9.93;;;13.30;99.90;;;;;;6371039;22;20372;-80
2022/11/01 02:16:28;;;;;;;24.77;12.30;;;13.30;99.90;;;;;;6371442;22;20061;-80
2022/11/01 02:19:33;;;;;;;26.67;11.43;;;13.30;99.90;;;;;;6371472;22;20010;-81
2022/11/01 02:22:05;;;;;;;18.95;10.88;;;13.40;99.90;;;;;;6301595;22;20015;-79
2022/11/01 02:24:54;;;;;;;21.20;10.48;;;13.30;99.90;;;;;;6371132;22;20014;-80
2022/11/01 02:27:25;;;;;;;20.98;9.75;;;13.40;99.90;;;;;;6342458;22;20018;-80
2022/11/01 02:30:09;;;;;;;22.05;11.15;;;13.40;99.90;;;;;;6371224;22;20014;-80
2022/11/01 02:32:58;;;;;;;26.00;11.63;;;13.40;99.90;;;;;;6343128;22;20041;-81
2022/11/01 02:35:33;;;;;;;20.90;10.57;;;13.40;99.90;;;;;;6370931;22;20060;-80
2022/11/01 02:38:36;;;;;;;19.77;9.52;;;13.40;99.90;;;;;;6370901;22;20363;-80
2022/11/01 02:41:16;;;;;;;22.33;10.00;;;13.50;99.90;;;;;;6243869;23;20020;-80
2022/11/01 02:43:56;;;;;;;18.20;10.45;;;13.50;99.90;;;;;;6358925;22;20497;-80
2022/11/01 02:49:12;;;;;;;20.13;10.23;;;13.50;99.90;;;;;;6370576;22;20020;-79
2022/11/01 02:51:38;;;;;;;21.23;10.02;;;13.40;99.90;;;;;;6371048;22;20057;-80
2022/11/01 02:54:06;;;;;;;19.48;10.48;;;13.50;99.90;;;;;;6370679;22;20506;-80
2022/11/01 02:56:31;;;;;;;19.48;10.57;;;13.50;99.90;;;;;;6371362;22;20465;-81
2022/11/01 02:58:58;;;;;;;20.52;9.98;;;13.50;99.90;;;;;;6371093;22;20014;-81
2022/11/01 03:01:26;;;;;;;21.23;9.70;;;13.50;99.90;;;;;;6370969;22;20018;-82
2022/11/01 03:03:55;;;;;;;18.05;10.05;;;13.60;99.90;;;;;;6369958;22;20042;-80
2022/11/01 03:06:36;;;;;;;20.60;11.40;;;13.60;99.90;;;;;;6370953;22;20071;-80
2022/11/01 03:09:09;;;;;;;21.67;11.55;;;13.50;99.90;;;;;;6371124;22;20007;-80
2022/11/01 03:11:34;;;;;;;;;;;13.40;99.90;;;;;;6371402;22;20082;-79
2022/11/01 03:14:00;;;;;;;21.75;10.55;;;13.40;99.90;;;;;;6342832;22;19949;-80
2022/11/01 03:16:56;;;;;;;26.63;10.20;;;13.40;99.90;;;;;;6370989;22;20550;-80
2022/11/01 03:19:46;;;;;;;24.48;10.27;;;13.50;99.90;;;;;;6342867;22;20015;-80
2022/11/01 03:22:33;;;;;;;18.77;10.00;;;13.50;99.90;;;;;;6342801;22;20020;-79
2022/11/01 03:28:27;;;;;;;19.60;9.93;;;13.50;99.90;;;;;;6284632;22;20113;-80
2022/11/01 03:31:02;;;;;;;21.00;10.73;;;13.50;99.90;;;;;;6370984;22;20002;-80
2022/11/01 03:33:29;;;;;;;20.98;10.65;;;13.60;99.90;;;;;;6342829;22;20025;-80
2022/11/01 03:36:02;;;;;;;20.77;11.75;;;13.50;99.90;;;;;;6370883;22;20073;-80
2022/11/01 03:38:32;;;;;;;24.27;10.48;;;13.60;99.90;;;;;;6370872;22;20021;-80
2022/11/01 03:41:03;;;;;;;25.13;10.10;;;13.70;99.90;;;;;;6370965;22;20025;-80
2022/11/01 03:43:31;;;;;;;18.80;9.30;;;13.70;99.90;;;;;;6342624;22;20021;-80
2022/11/01 03:45:57;;;;;;;19.42;9.93;;;13.70;99.90;;;;;;6342541;22;20027;-80
2022/11/01 03:48:23;;;;;;;19.08;10.32;;;13.80;99.90;;;;;;6370444;22;20038;-79
2022/11/01 03:50:51;;;;;;;19.65;9.77;;;13.80;99.90;;;;;;6370871;22;20041;-80
2022/11/01 03:53:17;;;;;;;16.45;10.13;;;13.80;99.90;;;;;;6342594;22;20085;-80
2022/11/01 03:55:43;;;;;;;17.52;9.38;;;13.80;99.90;;;;;;6370736;22;20010;-79
2022/11/01 03:58:09;;;;;;;20.10;10.13;;;13.90;99.90;;;;;;6370830;22;20021;-79
2022/11/01 04:00:43;;;;;;;17.65;9.40;;;13.90;99.90;;;;;;6342585;22;20055;-80
2022/11/01 04:03:10;;;;;;;18.15;9.82;;;13.90;99.90;;;;;;6370937;22;20049;-80
2022/11/01 04:05:38;;;;;;;23.95;9.45;;;13.90;99.90;;;;;;6372579;22;20014;-79
2022/11/01 04:08:04;;;;;;;18.90;9.43;;;13.90;99.90;;;;;;6372735;22;20006;-80
2022/11/01 04:10:30;;;;;;;23.02;9.30;;;14.00;99.90;;;;;;6344489;22;20434;-79
2022/11/01 04:12:58;;;;;;;19.42;9.45;;;14.00;99.90;;;;;;6372604;22;20151;-80
2022/11/01 04:21:19;;;;;;;19.38;8.90;;;14.00;99.90;;;;;;6372577;22;20027;-80
2022/11/01 04:23:45;;;;;;;17.88;8.70;;;14.10;99.90;;;;;;6372581;22;20010;-81
2022/11/01 04:26:13;;;;;;;19.75;8.68;;;14.10;99.90;;;;;;6343653;22;20107;-79
2022/11/01 04:28:39;;;;;;;17.38;8.90;;;14.10;99.90;;;;;;6371724;22;20094;-79
2022/11/01 04:31:05;;;;;;;16.27;8.68;;;14.20;99.90;;;;;;6372441;22;20049;-80
2022/11/01 04:33:31;;;;;;;17.23;8.13;;;14.20;99.90;;;;;;6344092;22;20014;-79
2022/11/01 04:35:56;;;;;;;17.08;8.18;;;14.20;99.90;;;;;;6372430;22;20090;-79
2022/11/01 04:38:22;;;;;;;21.63;8.55;;;14.20;99.90;;;;;;6372318;22;20010;-80
2022/11/01 04:40:48;;;;;;;16.13;9.18;;;14.30;99.90;;;;;;6371927;22;20017;-81
2022/11/01 04:43:14;;;;;;;14.73;7.80;;;14.30;99.90;;;;;;6372351;22;20438;-79
2022/11/01 04:45:39;;;;;;;18.88;8.50;;;14.40;99.90;;;;;;6372235;22;20089;-80
2022/11/01 04:48:12;;;;;;;16.35;7.97;;;14.50;99.90;;;;;;6371881;22;20061;-80
2022/11/01 04:50:38;;;;;;;18.83;8.57;;;14.50;99.90;;;;;;6372301;22;20015;-79
2022/11/01 04:53:05;;;;;;;15.55;8.10;;;14.50;99.90;;;;;;6372317;22;20071;-80
2022/11/01 04:55:30;;;;;;;15.85;8.75;;;14.50;99.90;;;;;;6371843;22;20403;-82
2022/11/01 04:57:56;;;;;;;15.15;8.50;;;14.50;99.90;;;;;;6372181;22;20434;-80
2022/11/01 05:00:22;;;;;;;15.23;8.45;;;14.60;99.90;;;;;;6343892;22;20018;-78
2022/11/01 05:02:48;;;;;;;18.48;8.73;;;14.60;99.90;;;;;;6371988;22;20460;-79
2022/11/01 05:05:14;;;;;;;16.50;8.57;;;14.70;99.90;;;;;;6343755;22;20021;-79
2022/11/01 05:07:40;;;;;;;16.75;8.77;;;14.70;99.90;;;;;;6371811;22;20022;-79
2022/11/01 05:10:07;;;;;;;21.27;8.32;;;14.80;99.90;;;;;;6371730;22;20438;-81
2022/11/01 05:12:33;;;;;;;17.30;8.10;;;14.80;99.90;;;;;;6372046;22;20110;-80
2022/11/01 05:14:58;;;;;;;13.07;6.90;;;14.80;99.90;;;;;;6371400;22;20012;-79
2022/11/01 05:17:24;;;;;;;13.95;7.70;;;14.80;99.90;;;;;;6343710;22;20025;-79
2022/11/01 05:19:49;;;;;;;12.45;7.63;;;14.80;99.90;;;;;;6371594;22;20437;-80
2022/11/01 05:22:16;;;;;;;14.40;7.25;;;14.80;99.90;;;;;;6371581;22;20097;-80
2022/11/01 05:24:42;;;;;;;12.68;7.05;;;14.80;99.90;;;;;;6371845;22;20013;-79
2022/11/01 05:27:07;;;;;;;11.20;6.00;;;14.80;99.90;;;;;;6343671;22;20380;-79
2022/11/01 05:29:33;;;;;;;11.55;5.28;;;14.80;99.90;;;;;;6371858;22;20017;-81
2022/11/01 05:31:58;;;;;;;10.43;5.10;;;14.80;99.90;;;;;;6371824;22;20322;-80
2022/11/01 05:34:24;;;;;;;8.75;4.60;;;14.80;99.90;;;;;;6371816;22;20033;-81
2022/11/01 05:36:49;;;;;;;9.38;2.97;;;14.70;99.90;;;;;;6371476;22;20018;-79
2022/11/01 05:39:15;;;;;;;6.72;2.55;;;14.70;99.90;;;;;;6371416;22;20021;-80
2022/11/01 05:41:41;;;;;;;4.75;2.35;;;14.60;99.90;;;;;;6371752;22;20024;-80
2022/11/01 05:44:06;;;;;;;6.10;1.73;;;14.60;99.90;;;;;;6371741;22;20014;-80
2022/11/01 05:46:32;;;;;;;6.22;1.55;;;14.50;99.90;;;;;;6343385;22;20049;-79
2022/11/01 05:48:58;;;;;;;7.13;1.48;;;14.40;99.90;;;;;;6371207;22;20021;-79
2022/11/01 05:51:23;;;;;;;4.05;1.48;;;14.40;99.90;;;;;;6342703;22;20143;-80
2022/11/01 05:53:49;;;;;;;4.70;1.33;;;14.40;99.90;;;;;;6371616;22;20430;-80
2022/11/01 05:56:16;;;;;;;5.35;1.83;;;14.30;99.90;;;;;;6371570;22;20093;-80
2022/11/01 05:58:42;;;;;;;7.38;1.90;;;14.30;99.90;;;;;;6371638;22;20014;-79
2022/11/01 06:01:08;;;;;;;6.38;1.67;;;14.20;99.90;;;;;;6371432;22;20010;-78
2022/11/01 06:03:35;;;;;;;5.85;1.63;;;14.20;99.90;;;;;;6371540;22;20049;-79
2022/11/01 06:06:01;;;;;;;5.78;1.45;;;14.20;99.90;;;;;;6371105;22;20018;-80
2022/11/01 06:08:27;;;;;;;7.55;1.30;;;14.20;99.90;;;;;;6371537;22;20124;-79
2022/11/01 06:10:59;;;;;;;5.57;1.52;;;14.10;99.90;;;;;;6371457;22;20049;-79
2022/11/01 06:13:24;;;;;;;4.60;1.33;;;14.10;99.90;;;;;;6371566;22;20006;-80
2022/11/01 06:15:57;;;;;;;9.68;2.58;;;14.00;99.90;;;;;;6343305;22;20022;-79
2022/11/01 06:18:23;;;;;;;7.22;2.17;;;14.00;99.90;;;;;;6371501;22;20010;-81
2022/11/01 06:20:48;;;;;;;6.03;1.48;;;13.90;99.90;;;;;;6370979;22;20015;-79
2022/11/01 06:23:14;;;;;;;5.60;1.77;;;13.90;99.90;;;;;;6371011;22;20021;-80
2022/11/01 06:25:39;;;;;;;7.30;1.90;;;13.90;99.90;;;;;;6371049;22;20044;-79
2022/11/01 06:28:05;;;;;;;9.10;1.95;;;13.90;99.90;;;;;;6342724;22;20389;-80
2022/11/01 06:30:30;;;;;;;7.03;1.30;;;13.90;99.90;;;;;;6370748;22;20003;-80
2022/11/01 06:33:00;;;;;;;9.70;1.23;;;13.80;99.90;;;;;;6369724;22;20318;-79
2022/11/01 06:35:29;;;;;;;12.30;2.03;;;13.70;99.90;;;;;;6342435;22;20011;-80
2022/11/01 06:38:05;;;;;;;7.32;1.30;;;13.70;99.90;;;;;;6343002;22;20042;-80
2022/11/01 06:40:32;;;;;;;11.57;1.55;;;13.70;99.90;;;;;;6371185;22;20033;-80
2022/11/01 06:43:02;;;;;;;6.90;1.38;;;13.70;99.90;;;;;;6371000;22;20143;-79
2022/11/01 06:45:31;;;;;;;7.90;1.10;;;13.60;99.90;;;;;;6369997;22;20021;-80
2022/11/01 06:47:57;;;;;;;15.68;1.88;;;13.60;99.90;;;;;;6370794;22;20033;-80
2022/11/01 06:50:23;;;;;;;6.50;1.17;;;13.50;99.90;;;;;;6370655;22;20018;-81
2022/11/01 06:52:49;;;;;;;9.15;1.45;;;13.50;99.90;;;;;;6371016;22;20046;-81
2022/11/01 06:55:15;;;;;;;7.57;1.52;;;13.50;99.90;;;;;;6342942;22;20021;-84
2022/11/01 06:57:41;;;;;;;9.32;1.50;;;13.50;99.90;;;;;;6370656;22;20029;-80
2022/11/01 07:00:08;;;;;;;9.05;1.60;;;13.40;99.90;;;;;;6369952;22;20014;-80
2022/11/01 07:02:34;;;;;;;9.13;1.60;;;13.40;99.90;;;;;;6370945;22;20102;-80
2022/11/01 07:04:59;;;;;;;13.98;1.60;;;13.40;99.90;;;;;;6342257;22;20011;-79
2022/11/01 07:07:25;;;;;;;7.03;1.08;;;13.40;99.90;;;;;;6370654;22;20022;-80
2022/11/01 07:09:51;;;;;;;13.48;1.75;;;13.40;99.90;;;;;;6370652;22;20434;-80
2022/11/01 07:12:16;;;;;;;10.73;1.25;;;13.40;99.90;;;;;;6370489;22;20019;-79
2022/11/01 07:14:42;;;;;;;13.90;1.45;;;13.40;99.90;;;;;;6370802;22;20022;-80
2022/11/01 07:17:07;;;;;;;11.15;1.58;;;13.50;99.90;;;;;;6342721;22;20022;-79
2022/11/01 07:19:33;;;;;;;13.77;2.30;;;13.40;99.90;;;;;;6370811;22;20029;-80
2022/11/01 07:21:59;;;;;;;10.90;1.20;;;13.40;99.90;;;;;;6369435;22;20474;-78
2022/11/01 07:24:24;;;;;;;12.13;1.75;;;13.40;99.90;;;;;;6370585;22;20010;-79
2022/11/01 07:26:50;;;;;;;12.75;1.58;;;13.40;99.90;;;;;;6342454;22;20071;-80
2022/11/01 07:29:16;;;;;;;10.02;1.50;;;13.50;99.90;;;;;;6370530;22;20020;-80
2022/11/01 07:31:41;;;;;;;14.18;1.70;;;13.40;99.90;;;;;;6370544;22;20033;-79
2022/11/01 07:34:07;;;;;;;14.32;1.98;;;13.50;99.90;;;;;;6370126;22;20021;-79
2022/11/01 07:36:33;;;;;;;11.77;1.40;;;13.50;99.90;;;;;;6369527;22;20011;-78
2022/11/01 07:38:58;;;;;;;8.85;1.30;;;13.40;99.90;;;;;;6370396;22;20075;-79
2022/11/01 07:41:24;;;;;;;12.38;1.60;;;13.50;99.90;;;;;;6343961;22;20453;-79
2022/11/01 07:43:50;;;;;;;12.05;1.25;;;13.60;99.90;;;;;;6372163;22;20086;-80
2022/11/01 07:46:15;;;;;;;9.18;1.50;;;13.50;99.90;;;;;;6343155;22;20451;-80
2022/11/01 07:48:41;;;;;;;10.80;2.00;;;13.60;99.90;;;;;;6372233;22;20014;-80
2022/11/01 07:51:08;;;;;;;11.20;1.60;;;13.60;99.90;;;;;;6372492;22;20014;-82
2022/11/01 07:53:34;;;;;;;12.02;1.50;;;13.60;99.90;;;;;;6371965;22;20023;-79
2022/11/01 07:56:00;;;;;;;24.50;2.97;;;13.50;99.90;;;;;;6371452;22;20065;-79
2022/11/01 07:58:26;;;;;;;31.70;3.80;;;13.60;99.90;;;;;;6343153;22;20018;-81
2022/11/01 08:00:52;;;;;;;18.27;2.40;;;13.50;99.90;;;;;;6372402;22;20433;-79
2022/11/01 08:03:18;;;;;;;13.13;2.25;;;13.50;99.90;;;;;;6372353;22;20377;-79
2022/11/01 08:05:45;;;;;;;12.60;2.30;;;13.50;99.90;;;;;;6372100;22;20011;-80
2022/11/01 08:08:12;;;;;;;28.48;3.55;;;13.60;99.90;;;;;;6372425;22;20015;-80
2022/11/01 08:10:38;;;;;;;13.20;2.08;;;13.60;99.90;;;;;;6372268;22;20014;-79
2022/11/01 08:13:20;;;;;;;16.40;2.58;;;13.60;99.90;;;;;;6371903;22;20025;-78
2022/11/01 08:15:47;;;;;;;11.95;2.22;;;13.60;99.90;;;;;;6372123;22;20010;-78
2022/11/01 08:18:14;;;;;;;17.25;2.53;;;13.60;99.90;;;;;;6370461;22;20438;-79
2022/11/01 08:20:40;;;;;;;28.85;3.58;;;13.60;99.90;;;;;;6372284;22;20009;-80
2022/11/01 08:23:06;;;;;;;12.75;2.45;;;13.70;99.90;;;;;;6371785;22;20018;-81
2022/11/01 08:25:33;;;;;;;12.13;2.08;;;13.60;99.90;;;;;;6372033;22;20018;-79
2022/11/01 08:28:07;;;;;;;16.05;2.08;;;13.60;99.90;;;;;;6372140;22;20010;-79
2022/11/01 08:30:33;;;;;;;17.38;2.05;;;13.60;99.90;;;;;;6371732;22;20453;-81
2022/11/01 08:33:00;;;;;;;19.45;2.05;;;13.60;99.90;;;;;;6343715;22;20394;-79
2022/11/01 08:35:26;;;;;;;12.32;2.53;;;13.60;99.90;;;;;;6371670;22;20368;-79
2022/11/01 08:37:53;;;;;;;14.50;2.13;;;13.60;99.90;;;;;;6371924;22;20025;-81
2022/11/01 08:40:20;;;;;;;20.52;2.53;;;13.70;99.90;;;;;;6343732;22;20018;-81
2022/11/01 08:42:46;;;;;;;15.65;2.30;;;13.70;99.90;;;;;;6371656;22;20450;-80
2022/11/01 08:45:11;;;;;;;18.15;2.38;;;13.70;99.90;;;;;;6343369;22;20045;-81
2022/11/01 08:47:38;;;;;;;19.20;2.90;;;13.70;99.90;;;;;;6371918;22;20022;-81
2022/11/01 08:50:05;;;;;;;19.77;2.95;;;13.70;99.90;;;;;;6371307;22;20452;-80
2022/11/01 08:52:31;;;;;;;18.67;2.83;;;13.70;99.90;;;;;;6371873;22;20056;-81
2022/11/01 08:54:56;;;;;;;20.10;3.22;;;13.70;99.90;;;;;;6371607;22;20372;-80
2022/11/01 08:57:22;;;;;;;23.88;2.80;;;13.80;99.90;;;;;;6371630;22;20010;-80
2022/11/01 08:59:48;;;;;;;18.42;3.47;;;13.80;99.90;;;;;;6371880;22;20015;-79
2022/11/01 09:02:13;;;;;;;22.55;2.83;;;13.90;99.90;;;;;;6371883;22;20010;-79
2022/11/01 09:04:39;;;;;;;20.50;3.20;;;13.90;99.90;;;;;;6343554;22;20026;-79
2022/11/01 09:07:04;;;;;;;19.42;2.60;;;14.00;99.90;;;;;;6370919;22;20046;-81
2022/11/01 09:09:30;;;;;;;20.00;3.42;;;13.90;99.90;;;;;;6343427;22;20066;-79
2022/11/01 09:11:56;;;;;;;20.50;3.22;;;14.00;99.90;;;;;;6371823;22;20014;-79
2022/11/01 09:14:23;;;;;;;16.00;2.65;;;14.00;99.90;;;;;;6343351;22;20018;-80
2022/11/01 09:16:52;;;;;;;17.95;3.63;;;14.00;99.90;;;;;;6343245;22;20395;-80
2022/11/01 09:19:18;;;;;;;17.63;3.55;;;14.00;99.90;;;;;;6371343;22;20117;-80
2022/11/01 09:21:44;;;;;;;20.77;3.03;;;14.10;99.90;;;;;;6370951;22;20363;-81
2022/11/01 09:24:13;;;;;;;23.70;3.45;;;14.00;99.90;;;;;;6371565;22;20049;-81
2022/11/01 09:26:39;;;;;;;12.38;2.88;;;14.10;99.90;;;;;;6371155;22;20018;-79
2022/11/01 09:29:05;;;;;;;23.70;4.22;;;14.10;99.90;;;;;;6343226;22;20097;-80
2022/11/01 09:31:32;;;;;;;13.82;3.00;;;14.20;99.90;;;;;;6371472;22;20501;-81
2022/11/01 09:33:59;;;;;;;17.98;3.60;;;14.30;99.90;;;;;;6371420;22;20275;-79
2022/11/01 09:36:26;;;;;;;18.73;2.35;;;14.40;99.90;;;;;;6371415;22;20014;-79
2022/11/01 09:38:53;;;;;;;26.92;3.75;;;14.50;99.90;;;;;;6370842;22;20102;-78
2022/11/01 09:41:44;;;;;;;14.27;3.40;;;14.50;99.90;;;;;;6371427;22;20050;-79
2022/11/01 09:44:14;;;;;;;18.58;3.03;;;14.50;99.90;;;;;;6371461;22;20093;-80
2022/11/01 09:46:49;;;;;;;23.95;3.25;;;14.60;99.90;;;;;;6371244;22;20014;-78
2022/11/01 09:49:20;;;;;;;17.25;2.65;;;14.60;99.90;;;;;;6341463;22;20020;-79
2022/11/01 09:51:46;;;;;;;16.20;2.83;;;14.60;99.90;;;;;;6371447;22;20045;-80
2022/11/01 09:54:12;;;;;;;14.32;3.10;;;14.50;99.90;;;;;;6370491;22;20338;-79
2022/11/01 09:56:42;;;;;;;24.48;2.85;;;14.50;99.90;;;;;;6370434;22;20018;-80
2022/11/01 09:59:34;;;;;;;20.60;3.08;;;14.60;99.90;;;;;;6370831;22;20018;-79
2022/11/01 10:02:29;;;;;;;12.73;3.03;;;14.50;99.90;;;;;;6370617;22;20066;-80
2022/11/01 10:05:06;;;;;;;17.40;3.10;;;14.50;99.90;;;;;;6371269;22;20014;-81
2022/11/01 10:08:17;;;;;;;26.15;4.00;;;14.50;99.90;;;;;;6371100;22;20097;-79
2022/11/01 10:11:06;;;;;;;16.77;3.30;;;14.60;99.90;;;;;;6321435;22;20042;-80
2022/11/01 10:13:49;;;;;;;14.85;3.08;;;14.50;99.90;;;;;;6340055;22;20010;-79
2022/11/01 10:16:40;;;;;;;23.25;3.13;;;14.50;99.90;;;;;;6369500;22;20013;-79
2022/11/01 10:19:17;;;;;;;16.27;3.38;;;14.60;99.90;;;;;;6342960;22;20018;-80
2022/11/01 10:21:50;;;;;;;17.30;3.40;;;14.60;99.90;;;;;;6371144;22;20006;-79
2022/11/01 10:24:36;;;;;;;18.50;3.65;;;14.70;99.90;;;;;;6370434;22;20097;-78
2022/11/01 10:27:24;;;;;;;14.63;3.15;;;14.90;99.90;;;;;;6370988;22;20025;-79
2022/11/01 10:30:16;;;;;;;19.92;2.80;;;14.80;99.90;;;;;;6371072;22;20010;-79
2022/11/01 10:32:48;;;;;;;20.30;3.30;;;14.70;99.90;;;;;;6356742;22;20136;-79
2022/11/01 10:35:22;;;;;;;15.98;2.65;;;14.70;99.90;;;;;;6370831;22;20010;-79
2022/11/01 10:37:54;;;;;;;16.20;2.95;;;14.50;99.90;;;;;;6370934;22;20015;-79
2022/11/01 10:40:44;;;;;;;21.95;3.08;;;14.50;99.90;;;;;;6342504;22;20014;-79
2022/11/01 10:43:15;;;;;;;15.02;2.30;;;14.70;99.90;;;;;;6320818;22;20076;-79
2022/11/01 10:45:43;;;;;;;20.65;3.20;;;14.70;99.90;;;;;;6370758;22;20094;-78
2022/11/01 10:48:25;;;;;;;23.80;2.63;;;14.60;99.90;;;;;;6369605;22;20016;-79
2022/11/01 10:50:52;;;;;;;16.40;3.47;;;14.70;99.90;;;;;;6342680;22;20485;-79
2022/11/01 10:53:19;;;;;;;20.00;3.25;;;14.80;99.90;;;;;;6370745;22;20017;-79
2022/11/01 10:55:50;;;;;;;20.60;2.75;;;14.90;99.90;;;;;;6370481;22;20386;-78
2022/11/01 10:58:17;;;;;;;18.27;3.70;;;14.80;99.90;;;;;;6370856;22;20049;-80
2022/11/01 11:00:44;;;;;;;21.50;3.90;;;14.80;99.90;;;;;;6370821;22;20022;-79
2022/11/01 11:03:26;;;;;;;15.57;3.15;;;14.80;99.90;;;;;;6342298;22;20059;-78
2022/11/01 11:05:53;;;;;;;21.08;3.55;;;14.80;99.90;;;;;;6370319;22;20089;-81
2022/11/01 11:08:22;;;;;;;16.42;2.70;;;14.80;99.90;;;;;;6370353;22;20454;-79
2022/11/01 11:10:49;;;;;;;20.70;3.10;;;14.80;99.90;;;;;;6370106;22;20342;-78
2022/11/01 11:13:23;;;;;;;17.98;2.83;;;14.80;99.90;;;;;;6371810;22;20046;-79
2022/11/01 11:15:59;;;;;;;21.63;3.00;;;14.90;99.90;;;;;;6372587;22;20020;-79
2022/11/01 11:18:29;;;;;;;17.50;3.53;;;14.90;99.90;;;;;;6344228;22;20025;-80
2022/11/01 11:21:00;;;;;;;19.48;3.08;;;14.80;99.90;;;;;;6372638;22;20010;-81
2022/11/01 11:23:32;;;;;;;16.90;3.20;;;14.80;99.90;;;;;;6372758;22;20057;-80
2022/11/01 11:26:07;;;;;;;11.30;3.15;;;14.90;99.90;;;;;;6372330;22;20357;-80
2022/11/01 11:28:43;;;;;;;12.30;3.05;;;14.90;99.90;;;;;;6372698;22;20016;-79
2022/11/01 11:31:17;;;;;;;16.48;3.63;;;14.80;99.90;;;;;;6344267;22;20038;-79
2022/11/01 11:33:50;;;;;;;18.30;3.00;;;14.90;99.90;;;;;;6372551;22;20021;-79
2022/11/01 11:36:17;;;;;;;14.00;3.38;;;14.80;99.90;;;;;;6344540;22;20010;-80
2022/11/01 11:38:46;;;;;;;16.77;2.70;;;14.80;99.90;;;;;;6372657;22;20003;-80
2022/11/01 11:41:25;;;;;;;19.00;3.53;;;14.70;99.90;;;;;;6372310;22;20049;-80
2022/11/01 11:43:51;;;;;;;17.27;3.17;;;14.70;99.90;;;;;;6372681;22;20014;-80
2022/11/01 11:46:21;;;;;;;15.15;2.90;;;14.60;99.90;;;;;;6372308;22;20024;-82
2022/11/01 11:48:55;;;;;;;10.10;3.33;;;14.60;99.90;;;;;;6372261;22;20007;-79
2022/11/01 11:51:21;;;;;;;13.63;2.95;;;14.70;99.90;;;;;;6372591;22;20022;-79
2022/11/01 11:54:06;;;;;;;16.20;3.72;;;14.70;99.90;;;;;;6371394;22;20015;-81
2022/11/01 11:56:31;;;;;;;18.77;4.25;;;14.80;99.90;;;;;;6372175;22;20446;-80
2022/11/01 11:59:05;;;;;;;16.23;3.05;;;14.80;99.90;;;;;;6372474;22;20021;-79
2022/11/01 12:01:32;;;;;;;17.35;3.00;;;14.80;99.90;;;;;;6343888;22;20018;-80
2022/11/01 12:04:07;;;;;;;14.93;2.63;;;14.80;99.90;;;;;;6372410;22;20021;-79
2022/11/01 12:06:39;;;;;;;16.75;2.80;;;14.80;99.90;;;;;;6372268;22;20020;-81
2022/11/01 12:09:05;;;;;;;11.55;3.28;;;14.80;99.90;;;;;;6344051;22;20093;-79
2022/11/01 12:11:43;;;;;;;13.70;2.97;;;14.80;99.90;;;;;;6372046;22;20052;-80
2022/11/01 12:14:22;;;;;;;15.38;2.63;;;14.90;99.90;;;;;;6343934;22;20022;-80
2022/11/01 12:16:48;;;;;;;14.05;2.83;;;15.00;99.90;;;;;;6372131;22;20071;-80
2022/11/01 12:19:23;;;;;;;14.48;2.90;;;15.00;99.90;;;;;;6372107;22;20446;-82
2022/11/01 12:21:50;;;;;;;20.00;3.17;;;15.10;99.90;;;;;;6344028;22;20067;-80
2022/11/01 12:24:47;;;;;;;13.73;2.30;;;15.00;99.90;;;;;;6371930;22;20011;-81
2022/11/01 12:27:21;;;;;;;11.10;2.55;;;15.10;99.90;;;;;;6371988;22;20011;-81
2022/11/01 12:29:54;;;;;;;18.45;3.08;;;15.10;99.90;;;;;;6344089;22;20019;-81
2022/11/01 12:32:33;;;;;;;19.08;2.65;;;15.20;99.90;;;;;;6372061;22;20014;-80
2022/11/01 12:35:05;;;;;;;16.25;2.78;;;15.20;99.90;;;;;;6343839;22;20025;-80
2022/11/01 12:38:06;;;;;;;16.43;3.23;;;15.20;99.90;;;;;;6371690;22;20082;-80
2022/11/01 12:40:42;;;;;;;13.65;2.33;;;15.20;99.90;;;;;;6307649;22;20438;-79
2022/11/01 12:43:12;;;;;;;18.13;2.90;;;15.30;99.90;;;;;;6343799;22;20064;-80
2022/11/01 12:45:45;;;;;;;10.43;2.10;;;15.20;99.90;;;;;;6343594;22;20018;-80
2022/11/01 12:48:17;;;;;;;10.82;2.38;;;15.20;99.90;;;;;;6370550;22;20498;-81
2022/11/01 12:50:48;;;;;;;12.95;2.33;;;15.20;99.90;;;;;;6371551;22;20442;-80
2022/11/01 12:53:24;;;;;;;14.75;1.88;;;15.20;99.90;;;;;;6343812;22;20029;-81
2022/11/01 12:55:49;;;;;;;13.18;2.50;;;15.20;99.90;;;;;;6371911;22;20018;-80
2022/11/01 12:58:18;;;;;;;18.83;2.28;;;15.30;99.90;;;;;;6371577;22;20023;-80
2022/11/01 13:00:53;;;;;;;14.55;2.42;;;15.40;99.90;;;;;;6371997;22;20056;-80
2022/11/01 13:03:28;;;;;;;21.25;2.97;;;15.40;99.90;;;;;;6343392;22;20096;-80
2022/11/01 13:06:06;;;;;;;10.95;2.30;;;15.50;99.90;;;;;;6343549;22;20413;-80
2022/11/01 13:08:40;;;;;;;14.02;2.22;;;15.50;99.90;;;;;;6370952;22;20018;-81